createdAt,value
2018-06-07T00:02:16.866Z,8.13
2018-06-07T00:04:45.230Z,8.07
2018-06-07T00:07:13.775Z,8.77
2018-06-07T00:09:42.254Z,9.10
2018-06-07T00:12:10.757Z,9.27
2018-06-07T00:14:39.122Z,10.33
2018-06-07T00:17:07.516Z,10.97
2018-06-07T00:19:35.892Z,11.50
2018-06-07T00:22:04.262Z,10.67
2018-06-07T00:24:32.663Z,11.27
2018-06-07T00:27:02.009Z,10.80
2018-06-07T00:29:30.391Z,11.77
2018-06-07T00:31:58.789Z,11.77
2018-06-07T00:34:27.318Z,11.77
2018-06-07T00:36:55.771Z,12.07
2018-06-07T00:39:24.181Z,11.40
2018-06-07T00:41:52.576Z,12.20
2018-06-07T00:44:20.956Z,12.30
2018-06-07T00:46:49.547Z,10.40
2018-06-07T00:49:20.929Z,10.50
2018-06-07T00:51:49.483Z,10.77
2018-06-07T00:54:18.055Z,10.50
2018-06-07T00:56:57.831Z,12.43
2018-06-07T00:59:26.255Z,10.67
2018-06-07T01:01:54.659Z,12.27
2018-06-07T01:04:23.094Z,9.87
2018-06-07T01:06:51.606Z,10.70
2018-06-07T01:09:20.000Z,10.60
2018-06-07T01:11:48.497Z,10.30
2018-06-07T01:14:16.895Z,10.73
2018-06-07T01:16:45.339Z,9.83
2018-06-07T01:19:13.778Z,10.13
2018-06-07T01:21:42.151Z,10.70
2018-06-07T01:24:10.954Z,10.17
2018-06-07T01:26:39.392Z,10.43
2018-06-07T01:29:19.005Z,10.00
2018-06-07T01:31:58.641Z,9.90
2018-06-07T01:34:27.102Z,10.53
2018-06-07T01:36:55.577Z,9.53
2018-06-07T01:39:23.843Z,10.47
2018-06-07T01:41:52.466Z,9.60
2018-06-07T01:44:20.877Z,10.70
2018-06-07T01:46:49.322Z,10.57
2018-06-07T01:49:17.996Z,10.50
2018-06-07T01:51:46.404Z,9.00
2018-06-07T01:54:14.802Z,9.53
2018-06-07T01:56:43.308Z,9.03
2018-06-07T01:59:11.723Z,9.20
2018-06-07T02:01:40.153Z,10.13
2018-06-07T02:04:08.570Z,10.73
2018-06-07T02:06:36.925Z,10.83
2018-06-07T02:09:08.181Z,9.87
2018-06-07T02:11:36.595Z,9.90
2018-06-07T02:14:04.991Z,9.97
2018-06-07T02:16:33.431Z,10.83
2018-06-07T02:19:01.873Z,10.10
2018-06-07T02:21:30.258Z,11.20
2018-06-07T02:23:58.745Z,10.13
2018-06-07T02:26:27.234Z,10.63
2018-06-07T02:28:55.737Z,10.13
2018-06-07T02:31:24.136Z,10.13
2018-06-07T02:33:52.496Z,10.10
2018-06-07T02:36:20.947Z,10.57
2018-06-07T02:38:49.330Z,8.90
2018-06-07T02:41:17.757Z,11.60
2018-06-07T02:43:46.165Z,11.87
2018-06-07T02:46:14.612Z,10.53
2018-06-07T02:48:43.015Z,10.80
2018-06-07T02:51:11.382Z,11.60
2018-06-07T02:53:39.761Z,10.27
2018-06-07T02:56:08.128Z,9.47
2018-06-07T02:58:36.614Z,10.70
2018-06-07T03:01:05.023Z,10.40
2018-06-07T03:03:33.436Z,9.70
2018-06-07T03:06:01.794Z,9.87
2018-06-07T03:08:30.297Z,9.90
2018-06-07T03:10:58.669Z,11.23
2018-06-07T03:13:27.122Z,10.10
2018-06-07T03:15:55.604Z,10.80
2018-06-07T03:18:24.165Z,8.83
2018-06-07T03:20:52.565Z,11.80
2018-06-07T03:23:21.073Z,12.90
2018-06-07T03:25:49.599Z,10.70
2018-06-07T03:28:17.946Z,11.50
2018-06-07T03:30:46.343Z,11.57
2018-06-07T03:33:14.713Z,10.90
2018-06-07T03:35:43.116Z,9.67
2018-06-07T03:38:11.479Z,10.10
2018-06-07T03:40:39.941Z,9.83
2018-06-07T03:43:08.321Z,11.00
2018-06-07T03:45:36.854Z,10.53
2018-06-07T03:48:05.366Z,10.40
2018-06-07T03:50:33.762Z,11.33
2018-06-07T03:53:02.209Z,11.10
2018-06-07T03:55:30.591Z,10.30
2018-06-07T03:57:59.100Z,10.70
2018-06-07T04:00:27.623Z,10.53
2018-06-07T04:02:55.966Z,10.30
2018-06-07T04:05:24.335Z,11.50
2018-06-07T04:07:52.771Z,11.50
2018-06-07T04:10:21.194Z,10.77
2018-06-07T04:12:49.640Z,12.10
2018-06-07T04:15:18.350Z,11.60
2018-06-07T04:17:46.781Z,11.03
2018-06-07T04:20:15.473Z,11.93
2018-06-07T04:22:43.827Z,10.50
2018-06-07T04:25:12.213Z,11.10
2018-06-07T04:27:40.567Z,9.60
2018-06-07T04:30:09.019Z,8.50
2018-06-07T04:32:37.374Z,10.50
2018-06-07T04:35:05.783Z,9.80
2018-06-07T04:37:34.287Z,10.23
2018-06-07T04:40:02.669Z,10.40
2018-06-07T04:42:31.074Z,10.07
2018-06-07T04:44:59.506Z,10.70
2018-06-07T04:47:27.989Z,10.47
2018-06-07T04:49:56.387Z,12.10
2018-06-07T04:52:24.853Z,10.60
2018-06-07T04:54:53.449Z,10.30
2018-06-07T04:57:21.914Z,10.80
2018-06-07T04:59:50.396Z,10.13
2018-06-07T05:02:19.157Z,9.77
2018-06-07T05:04:47.757Z,10.90
2018-06-07T05:07:16.199Z,10.87
2018-06-07T05:09:44.586Z,12.40
2018-06-07T05:12:12.984Z,12.10
2018-06-07T05:14:41.377Z,11.20
2018-06-07T05:17:09.810Z,11.30
2018-06-07T05:19:38.205Z,11.77
2018-06-07T05:22:06.948Z,11.17
2018-06-07T05:24:35.353Z,11.77
2018-06-07T05:27:03.938Z,11.40
2018-06-07T05:29:32.854Z,11.00
2018-06-07T05:32:01.444Z,10.73
2018-06-07T05:34:30.999Z,9.30
2018-06-07T05:36:59.450Z,9.30
2018-06-07T05:39:27.940Z,8.83
2018-06-07T05:41:56.318Z,10.43
2018-06-07T05:44:24.777Z,9.70
2018-06-07T05:46:53.330Z,9.23
2018-06-07T05:49:21.935Z,10.60
2018-06-07T05:51:50.427Z,10.43
2018-06-07T05:54:18.909Z,9.03
2018-06-07T05:56:47.281Z,9.10
2018-06-07T05:59:15.906Z,9.77
2018-06-07T06:01:44.132Z,9.33
2018-06-07T06:04:12.556Z,9.20
2018-06-07T06:06:40.970Z,9.30
2018-06-07T06:09:09.357Z,8.70
2018-06-07T06:11:37.794Z,9.70
2018-06-07T06:14:06.313Z,9.60
2018-06-07T06:16:34.802Z,9.87
2018-06-07T06:19:03.147Z,9.80
2018-06-07T06:21:31.851Z,10.67
2018-06-07T06:24:00.400Z,9.67
2018-06-07T06:26:28.891Z,10.27
2018-06-07T06:28:57.250Z,9.43
2018-06-07T06:31:25.901Z,10.40
2018-06-07T06:33:54.558Z,9.80
2018-06-07T06:36:23.209Z,9.57
2018-06-07T06:38:51.574Z,11.10
2018-06-07T06:41:20.058Z,10.27
2018-06-07T06:43:48.555Z,8.93
2018-06-07T06:46:16.968Z,10.10
2018-06-07T06:48:45.412Z,9.73
2018-06-07T06:51:13.846Z,10.40
2018-06-07T06:53:42.489Z,10.43
2018-06-07T06:56:10.909Z,10.90
2018-06-07T06:58:39.297Z,10.30
2018-06-07T07:03:42.813Z,11.13
2018-06-07T07:06:11.138Z,10.80
2018-06-07T07:08:39.676Z,10.13
2018-06-07T07:11:08.102Z,10.97
2018-06-07T07:13:36.452Z,9.87
2018-06-07T07:16:04.954Z,9.57
2018-06-07T07:18:34.001Z,10.27
2018-06-07T07:21:02.416Z,10.87
2018-06-07T07:23:30.903Z,11.90
2018-06-07T07:25:59.243Z,9.97
2018-06-07T07:28:27.772Z,12.57
2018-06-07T07:30:56.245Z,10.90
2018-06-07T07:33:24.657Z,10.00
2018-06-07T07:35:53.222Z,11.50
2018-06-07T07:38:21.707Z,12.20
2018-06-07T07:40:50.126Z,11.70
2018-06-07T07:43:18.557Z,11.33
2018-06-07T07:45:47.015Z,11.37
2018-06-07T07:48:15.498Z,10.43
2018-06-07T07:50:43.905Z,11.77
2018-06-07T07:53:12.279Z,10.87
2018-06-07T07:55:40.713Z,10.60
2018-06-07T07:58:09.093Z,10.20
2018-06-07T08:00:37.497Z,10.10
2018-06-07T08:03:05.898Z,9.77
2018-06-07T08:05:34.277Z,9.37
2018-06-07T08:08:02.653Z,9.43
2018-06-07T08:10:31.181Z,8.73
2018-06-07T08:12:59.548Z,9.23
2018-06-07T08:15:27.924Z,8.83
2018-06-07T08:17:56.398Z,9.10
2018-06-07T08:20:24.825Z,9.43
2018-06-07T08:22:53.220Z,9.07
2018-06-07T08:25:21.579Z,8.70
2018-06-07T08:27:49.984Z,9.60
2018-06-07T08:30:18.389Z,9.77
2018-06-07T08:32:46.821Z,9.57
2018-06-07T08:35:15.198Z,10.87
2018-06-07T08:37:43.610Z,9.87
2018-06-07T08:40:12.011Z,9.63
2018-06-07T08:42:40.466Z,10.60
2018-06-07T08:45:08.873Z,9.87
2018-06-07T08:47:37.418Z,9.07
2018-06-07T08:50:05.903Z,9.50
2018-06-07T08:52:34.492Z,9.67
2018-06-07T08:55:02.937Z,11.00
2018-06-07T08:57:31.618Z,9.40
2018-06-07T09:00:00.246Z,10.57
2018-06-07T09:02:28.763Z,11.03
2018-06-07T09:04:57.356Z,12.73
2018-06-07T09:07:25.941Z,10.17
2018-06-07T09:09:54.647Z,9.70
2018-06-07T09:12:23.025Z,11.40
2018-06-07T09:14:51.518Z,10.13
2018-06-07T09:17:20.033Z,10.00
2018-06-07T09:19:48.689Z,8.87
2018-06-07T09:22:17.097Z,10.00
2018-06-07T09:24:45.527Z,9.20
2018-06-07T09:27:13.993Z,9.50
2018-06-07T09:29:42.474Z,8.87
2018-06-07T09:32:11.051Z,8.93
2018-06-07T09:34:39.397Z,8.83
2018-06-07T09:37:07.800Z,8.30
2018-06-07T09:39:36.289Z,8.37
2018-06-07T09:42:04.730Z,10.20
2018-06-07T09:44:33.116Z,10.40
2018-06-07T09:47:01.477Z,9.97
2018-06-07T09:49:30.111Z,10.97
2018-06-07T09:51:58.498Z,10.80
2018-06-07T09:54:26.925Z,10.13
2018-06-07T09:56:55.318Z,10.17
2018-06-07T09:59:23.466Z,10.23
2018-06-07T10:01:51.945Z,10.30
2018-06-07T10:04:20.379Z,9.70
2018-06-07T10:06:48.740Z,10.43
2018-06-07T10:09:17.234Z,10.43
2018-06-07T10:11:45.596Z,9.67
2018-06-07T10:14:13.999Z,10.47
2018-06-07T10:16:42.392Z,11.60
2018-06-07T10:19:10.926Z,10.70
2018-06-07T10:21:39.600Z,9.97
2018-06-07T10:24:08.123Z,10.13
2018-06-07T10:26:36.517Z,10.90
2018-06-07T10:29:05.135Z,10.43
2018-06-07T10:31:33.646Z,10.20
2018-06-07T10:34:02.069Z,12.20
2018-06-07T10:36:30.599Z,11.27
2018-06-07T10:38:58.978Z,10.27
2018-06-07T10:41:27.413Z,11.30
2018-06-07T10:43:55.797Z,12.47
2018-06-07T10:46:24.238Z,12.20
2018-06-07T10:48:52.641Z,10.47
2018-06-07T10:51:21.023Z,11.63
2018-06-07T10:53:49.393Z,10.40
2018-06-07T10:56:17.896Z,10.13
2018-06-07T10:58:46.380Z,10.70
2018-06-07T11:01:14.854Z,10.20
2018-06-07T11:03:43.243Z,9.80
2018-06-07T11:06:11.622Z,10.53
2018-06-07T11:08:39.997Z,11.23
2018-06-07T11:11:08.409Z,10.10
2018-06-07T11:13:36.825Z,8.87
2018-06-07T11:16:05.241Z,10.00
2018-06-07T11:18:33.630Z,11.40
2018-06-07T11:21:02.117Z,10.60
2018-06-07T11:23:30.541Z,11.30
2018-06-07T11:25:58.913Z,10.47
2018-06-07T11:28:27.406Z,10.27
2018-06-07T11:30:55.957Z,11.50
2018-06-07T11:33:24.462Z,11.80
2018-06-07T11:35:53.017Z,11.07
2018-06-07T11:38:21.375Z,12.57
2018-06-07T11:40:49.814Z,10.07
2018-06-07T11:43:18.165Z,11.07
2018-06-07T11:45:46.546Z,9.90
2018-06-07T11:48:14.898Z,10.82
2018-06-07T11:50:43.478Z,10.10
2018-06-07T11:53:11.896Z,10.20
2018-06-07T11:55:40.345Z,9.60
2018-06-07T11:58:08.924Z,9.50
2018-06-07T12:00:37.637Z,10.47
2018-06-07T12:03:06.235Z,10.53
2018-06-07T12:05:34.697Z,10.77
2018-06-07T12:08:03.148Z,10.10
2018-06-07T12:10:31.561Z,10.37
2018-06-07T12:12:59.937Z,10.30
2018-06-07T12:15:28.395Z,10.68
2018-06-07T12:17:56.815Z,9.53
2018-06-07T12:20:25.187Z,9.63
2018-06-07T12:22:53.534Z,9.17
2018-06-07T12:25:21.904Z,9.60
2018-06-07T12:27:50.335Z,10.32
2018-06-07T12:30:19.400Z,10.50
2018-06-07T12:32:48.022Z,10.83
2018-06-07T12:35:16.144Z,10.20
2018-06-07T12:37:44.637Z,9.98
2018-06-07T12:40:13.148Z,9.13
2018-06-07T12:42:41.453Z,10.00
2018-06-07T12:45:09.860Z,9.80
2018-06-07T12:47:38.546Z,10.68
2018-06-07T12:50:06.911Z,9.97
2018-06-07T12:52:35.341Z,9.93
2018-06-07T12:55:03.901Z,10.30
2018-06-07T12:57:32.384Z,9.90
2018-06-07T13:00:00.737Z,9.73
2018-06-07T13:02:29.252Z,9.50
2018-06-07T13:04:57.730Z,9.20
2018-06-07T13:07:26.159Z,9.58
2018-06-07T13:09:54.569Z,10.43
2018-06-07T13:12:22.998Z,9.70
2018-06-07T13:14:51.404Z,9.25
2018-06-07T13:17:19.819Z,9.33
2018-06-07T13:19:48.288Z,10.20
2018-06-07T13:22:16.710Z,10.08
2018-06-07T13:24:45.243Z,9.80
2018-06-07T13:27:13.602Z,9.55
2018-06-07T13:29:41.987Z,9.40
2018-06-07T13:32:10.406Z,9.53
2018-06-07T13:34:38.865Z,9.65
2018-06-07T13:37:07.289Z,9.53
2018-06-07T13:39:35.682Z,9.10
2018-06-07T13:42:04.126Z,9.20
2018-06-07T13:44:32.689Z,9.60
2018-06-07T13:47:01.214Z,10.78
2018-06-07T13:49:29.765Z,9.43
2018-06-07T13:51:58.148Z,9.90
2018-06-07T13:54:27.426Z,10.80
2018-06-07T13:56:55.837Z,8.98
2018-06-07T13:59:24.346Z,9.20
2018-06-07T14:01:52.830Z,9.50
2018-06-07T14:04:21.366Z,10.10
2018-06-07T14:06:49.756Z,9.90
2018-06-07T14:09:18.289Z,9.48
2018-06-07T14:11:46.665Z,9.50
2018-06-07T14:14:15.106Z,9.33
2018-06-07T14:16:43.571Z,9.80
2018-06-07T14:19:11.942Z,9.78
2018-06-07T14:21:40.360Z,9.33
2018-06-07T14:24:08.822Z,8.80
2018-06-07T14:26:36.934Z,9.33
2018-06-07T14:29:05.317Z,9.40
2018-06-07T14:31:33.845Z,9.85
2018-06-07T14:34:02.380Z,9.55
2018-06-07T14:36:30.860Z,9.58
2018-06-07T14:38:59.229Z,9.33
2018-06-07T14:41:27.742Z,9.65
2018-06-07T14:43:56.283Z,9.63
2018-06-07T14:46:24.770Z,8.95
2018-06-07T14:48:53.250Z,9.10
2018-06-07T14:51:21.674Z,9.50
2018-06-07T14:53:50.129Z,9.20
2018-06-07T14:56:18.701Z,9.58
2018-06-07T14:58:47.185Z,9.80
2018-06-07T15:01:15.587Z,9.45
2018-06-07T15:03:44.011Z,9.30
2018-06-07T15:06:12.562Z,9.00
2018-06-07T15:08:41.043Z,9.65
2018-06-07T15:11:09.440Z,8.83
2018-06-07T15:13:37.877Z,9.23
2018-06-07T15:16:06.237Z,8.80
2018-06-07T15:18:34.669Z,9.65
2018-06-07T15:21:03.186Z,8.95
2018-06-07T15:23:31.625Z,8.70
2018-06-07T15:26:00.118Z,8.93
2018-06-07T15:28:28.748Z,8.90
2018-06-07T15:30:57.331Z,8.93
2018-06-07T15:33:25.762Z,8.73
2018-06-07T15:35:54.327Z,9.30
2018-06-07T15:38:22.805Z,9.25
2018-06-07T15:40:51.256Z,8.60
2018-06-07T15:43:19.719Z,8.63
2018-06-07T15:45:48.302Z,8.73
2018-06-07T15:48:16.686Z,8.80
2018-06-07T15:50:45.146Z,9.20
2018-06-07T15:53:13.567Z,8.93
2018-06-07T15:55:41.986Z,9.18
2018-06-07T15:58:10.427Z,9.90
2018-06-07T16:00:38.871Z,9.45
2018-06-07T16:03:07.329Z,9.08
2018-06-07T16:05:35.894Z,10.00
2018-06-07T16:08:04.401Z,8.80
2018-06-07T16:10:32.830Z,9.00
2018-06-07T16:13:01.262Z,8.75
2018-06-07T16:15:29.707Z,9.78
2018-06-07T16:17:58.129Z,8.30
2018-06-07T16:20:26.519Z,9.20
2018-06-07T16:22:54.931Z,10.05
2018-06-07T16:25:23.344Z,9.30
2018-06-07T16:27:51.893Z,9.35
2018-06-07T16:30:20.516Z,9.30
2018-06-07T16:32:49.023Z,9.28
2018-06-07T16:35:17.550Z,9.40
2018-06-07T16:37:46.103Z,9.10
2018-06-07T16:40:14.645Z,9.00
2018-06-07T16:42:43.271Z,10.63
2018-06-07T16:45:11.802Z,9.70
2018-06-07T16:47:40.222Z,10.00
2018-06-07T16:50:08.698Z,9.80
2018-06-07T16:52:37.459Z,8.85
2018-06-07T16:55:06.293Z,9.10
2018-06-07T16:57:34.760Z,9.13
2018-06-07T17:00:03.232Z,9.10
2018-06-07T17:02:31.631Z,9.25
2018-06-07T17:05:00.121Z,9.40
2018-06-07T17:07:28.512Z,9.63
2018-06-07T17:09:56.979Z,9.10
2018-06-07T17:12:25.350Z,9.60
2018-06-07T17:14:53.899Z,9.13
2018-06-07T17:17:22.305Z,9.90
2018-06-07T17:19:50.808Z,9.40
2018-06-07T17:22:19.334Z,9.60
2018-06-07T17:24:47.767Z,10.18
2018-06-07T17:27:16.218Z,9.55
2018-06-07T17:29:44.660Z,9.67
2018-06-07T17:32:13.198Z,8.98
2018-06-07T17:34:41.617Z,9.63
2018-06-07T17:37:10.067Z,9.70
2018-06-07T17:39:38.481Z,10.75
2018-06-07T17:42:07.162Z,10.00
2018-06-07T17:44:35.504Z,10.53
2018-06-07T17:47:03.982Z,8.00
2018-06-07T17:49:32.360Z,6.50
2018-06-07T17:52:01.009Z,6.53
2018-06-07T17:54:29.427Z,7.50
2018-06-07T17:56:57.893Z,6.87
2018-06-07T17:59:26.401Z,8.00
2018-06-07T18:01:55.392Z,8.47
2018-06-07T18:04:24.627Z,8.20
2018-06-07T18:06:53.922Z,8.30
2018-06-07T18:09:22.415Z,10.67
2018-06-07T18:11:50.974Z,5.00
2018-06-07T18:14:19.657Z,4.30
2018-06-07T18:16:48.185Z,5.07
2018-06-07T18:19:16.747Z,4.60
2018-06-07T18:21:45.162Z,5.37
2018-06-07T18:24:13.359Z,4.00
2018-06-07T18:26:42.054Z,4.43
2018-06-07T18:29:10.488Z,4.53
2018-06-07T18:31:39.030Z,5.60
2018-06-07T18:34:07.503Z,5.23
2018-06-07T18:36:36.021Z,5.50
2018-06-07T18:39:07.547Z,6.27
2018-06-07T18:41:36.102Z,6.20
2018-06-07T18:44:05.005Z,5.40
2018-06-07T18:46:33.595Z,5.43
2018-06-07T18:49:02.314Z,5.50
2018-06-07T18:51:30.895Z,6.97
2018-06-07T18:53:59.419Z,7.67
2018-06-07T18:56:27.964Z,7.60
2018-06-07T18:58:56.399Z,8.27
2018-06-07T19:01:24.834Z,8.10
2018-06-07T19:03:53.341Z,8.53
2018-06-07T19:06:21.862Z,8.10
2018-06-07T19:08:55.727Z,8.63
2018-06-07T19:11:24.209Z,8.47
2018-06-07T19:13:57.862Z,9.33
2018-06-07T19:16:26.254Z,7.47
2018-06-07T19:19:00.201Z,7.73
2018-06-07T19:21:28.695Z,6.60
2018-06-07T19:23:57.194Z,7.30
2018-06-07T19:26:31.023Z,6.57
2018-06-07T19:28:59.700Z,6.40
2018-06-07T19:31:28.769Z,7.73
2018-06-07T19:35:05.681Z,7.70
2018-06-07T19:37:34.725Z,6.73
2018-06-07T19:40:08.700Z,7.67
2018-06-07T19:42:37.208Z,6.60
2018-06-07T19:45:06.316Z,7.83
2018-06-07T19:47:35.447Z,6.57
2018-06-07T19:50:05.341Z,6.10
2018-06-07T19:52:33.804Z,5.50
2018-06-07T19:55:02.577Z,6.70
2018-06-07T19:57:31.328Z,5.90
2018-06-07T19:59:59.736Z,5.50
2018-06-07T20:02:28.248Z,6.60
2018-06-07T20:04:56.673Z,6.13
2018-06-07T20:07:25.180Z,5.33
2018-06-07T20:09:53.651Z,5.30
2018-06-07T20:12:22.909Z,5.23
2018-06-07T20:14:52.616Z,5.00
2018-06-07T20:17:21.226Z,5.13
2018-06-07T20:19:51.430Z,4.63
2018-06-07T20:22:19.942Z,4.90
2018-06-07T20:24:48.537Z,10.07
2018-06-07T20:27:17.306Z,6.30
2018-06-07T20:29:45.476Z,5.27
2018-06-07T20:32:14.070Z,5.70
2018-06-07T20:34:42.571Z,5.87
2018-06-07T20:37:11.897Z,6.20
2018-06-07T20:39:41.155Z,5.20
2018-06-07T20:42:09.794Z,6.03
2018-06-07T20:44:38.241Z,5.90
2018-06-07T20:47:07.475Z,5.20
2018-06-07T20:49:36.167Z,5.67
2018-06-07T20:52:05.384Z,6.77
2018-06-07T20:54:33.997Z,4.97
2018-06-07T20:57:03.244Z,5.70
2018-06-07T20:59:31.948Z,5.63
2018-06-07T21:02:01.073Z,4.90
2018-06-07T21:04:29.499Z,5.47
2018-06-07T21:06:58.492Z,4.90
2018-06-07T21:09:27.715Z,5.40
2018-06-07T21:11:56.783Z,5.23
2018-06-07T21:14:25.692Z,5.37
2018-06-07T21:16:54.018Z,6.13
2018-06-07T21:19:22.650Z,5.63
2018-06-07T21:21:51.525Z,5.13
2018-06-07T21:24:19.951Z,7.10
2018-06-07T21:26:48.348Z,5.90
2018-06-07T21:29:16.830Z,7.73
2018-06-07T21:31:45.354Z,7.63
2018-06-07T21:34:13.986Z,7.80
2018-06-07T21:36:42.676Z,7.30
2018-06-07T21:39:11.439Z,8.10
2018-06-07T21:41:39.934Z,8.20
2018-06-07T21:44:08.625Z,8.43
2018-06-07T21:46:37.104Z,9.10
2018-06-07T21:49:05.661Z,8.40
2018-06-07T21:56:11.012Z,7.80
2018-06-07T21:58:39.431Z,7.03
2018-06-07T22:01:08.259Z,7.10
2018-06-07T22:03:36.680Z,7.50
2018-06-07T22:06:05.106Z,7.90
2018-06-07T22:08:33.477Z,8.70
2018-06-07T22:11:02.014Z,7.77
2018-06-07T22:13:30.503Z,6.60
2018-06-07T22:15:58.911Z,7.00
2018-06-07T22:18:27.312Z,7.73
2018-06-07T22:20:55.878Z,7.50
2018-06-07T22:23:24.266Z,6.90
2018-06-07T22:25:52.710Z,6.60
2018-06-07T22:28:21.171Z,5.70
2018-06-07T22:30:49.549Z,6.70
2018-06-07T22:33:18.332Z,6.40
2018-06-07T22:35:46.736Z,5.30
2018-06-07T22:38:15.329Z,6.20
2018-06-07T22:40:43.866Z,5.87
2018-06-07T22:43:12.384Z,6.63
2018-06-07T22:45:40.835Z,7.13
2018-06-07T22:48:09.253Z,6.63
2018-06-07T22:50:37.717Z,7.10
2018-06-07T22:53:06.177Z,6.70
2018-06-07T22:55:34.674Z,5.90
2018-06-07T22:58:03.085Z,6.97
2018-06-07T23:00:31.530Z,6.50
2018-06-07T23:03:00.103Z,7.10
2018-06-07T23:05:28.498Z,6.40
2018-06-07T23:07:56.920Z,5.83
2018-06-07T23:10:25.289Z,5.80
2018-06-07T23:12:53.702Z,6.67
2018-06-07T23:15:22.266Z,6.03
2018-06-07T23:17:50.692Z,6.07
2018-06-07T23:20:19.045Z,5.40
2018-06-07T23:22:47.418Z,6.80
2018-06-07T23:25:15.834Z,5.60
2018-06-07T23:27:44.204Z,6.27
2018-06-07T23:30:12.618Z,5.33
2018-06-07T23:32:40.949Z,6.00
2018-06-07T23:35:09.315Z,6.50
2018-06-07T23:37:37.726Z,5.10
2018-06-07T23:40:06.308Z,4.90
2018-06-07T23:42:34.723Z,5.10
2018-06-07T23:45:02.868Z,4.13
2018-06-07T23:47:31.261Z,5.50
2018-06-07T23:49:59.652Z,5.50
2018-06-07T23:52:27.748Z,5.70
2018-06-07T23:54:56.220Z,6.60
2018-06-07T23:57:24.621Z,3.73
2018-06-07T23:59:52.949Z,6.23
